Historique des mesures à Cassis (13260), France
Quotidien Résumé Avril 4, 2021 Unités:  Métrique    US   Métrique/US
Quotidien Hebdomadaire Mensuel Annuel
  Maximum: Minimum: Moyenne:
Température: 13.9 °C 9.1 °C 11 °C
Point de rosée: 4.3 °C 1.3 °C 3.1 °C
Humidité: 70% 46% 59%
Vitesse du vent: 38.5km/h 10.1km/h 22.3km/h
Rafales: 55.4km/h - -
Vent- - WNW
Pression: 1010.1 hPa 1000.4 hPa -
Précipitations: 0.0 mm    
Historical Graphs
 
 
Mesures pour : Avril 4, 2021
Heure Temperature Point de rosée Pression Vent Vitesse du vent Rafales Humidité Pluie (par heure)
00:11 10.2 °C 3.7 °C 1000.4 hPa NW 14 km/h 46.4 km/h 64% 0.0 mm
01:10 10.2 °C 3.4 °C 1000.9 hPa WNW 21.6 km/h 55.4 km/h 63% 0.0 mm
02:11 9.8 °C 3.7 °C 1001.3 hPa WNW 32.4 km/h 54 km/h 66% 0.0 mm
03:10 9.4 °C 3.8 °C 1002.0 hPa NW 18.4 km/h 37.1 km/h 68% 0.0 mm
04:11 9.1 °C 3.9 °C 1002.4 hPa NW 29.5 km/h 46.8 km/h 70% 0.0 mm
05:10 9.2 °C 3.8 °C 1003.0 hPa WNW 27 km/h 44.3 km/h 69% 0.0 mm
06:11 9.1 °C 3.7 °C 1003.6 hPa SW 23 km/h 40 km/h 69% 0.0 mm
07:10 9.1 °C 3.9 °C 1004.5 hPa WNW 22.7 km/h 33.1 km/h 70% 0.0 mm
08:11 9.8 °C 3.9 °C 1005.0 hPa NW 29.5 km/h 46.1 km/h 67% 0.0 mm
09:10 10.3 °C 3.3 °C 1005.2 hPa WNW 38.5 km/h 49.7 km/h 62% 0.0 mm
10:11 10.9 °C 3.4 °C 1006.1 hPa NNW 12.2 km/h 33.8 km/h 60% 0.0 mm
11:10 11.9 °C 3.9 °C 1007.3 hPa WNW 29.9 km/h 35.3 km/h 58% 0.0 mm
12:11 12.9 °C 4.3 °C 1007.7 hPa NW 25.2 km/h 32.4 km/h 56% 0.0 mm
13:10 13.2 °C 4.3 °C 1007.5 hPa West 18.7 km/h 33.8 km/h 55% 0.0 mm
14:11 13.6 °C 3.7 °C 1007.3 hPa WNW 18.4 km/h 42.5 km/h 51% 0.0 mm
15:10 13.9 °C 3.7 °C 1007.6 hPa WNW 27.7 km/h 37.4 km/h 50% 0.0 mm
16:11 13.7 °C 2.9 °C 1007.7 hPa NW 18.4 km/h 40.7 km/h 48% 0.0 mm
17:10 12.9 °C 1.5 °C 1008.1 hPa WNW 10.4 km/h 31.3 km/h 46% 0.0 mm
18:11 12.1 °C 1.4 °C 1008.6 hPa West 28.8 km/h 49 km/h 48% 0.0 mm
19:11 11.3 °C 1.8 °C 1009.6 hPa WNW 16.2 km/h 31.7 km/h 52% 0.0 mm
20:10 10.6 °C 2.1 °C 1009.0 hPa WNW 25.6 km/h 31.3 km/h 56% 0.0 mm
21:11 10.3 °C 1.9 °C 1008.9 hPa West 18 km/h 32.8 km/h 56% 0.0 mm
22:10 10.3 °C 1.4 °C 1009.5 hPa WNW 19.8 km/h 22.7 km/h 54% 0.0 mm
23:11 9.4 °C 1.3 °C 1010.1 hPa West 10.1 km/h 22.7 km/h 57% 0.0 mm
Observations météo à CASSIS
WU-History script by Weather Underground - 2 mb